createdAt,value
2022-08-28T00:00:14.597Z,0.00
2022-08-28T00:01:14.566Z,0.00
2022-08-28T00:02:14.565Z,0.00
2022-08-28T00:03:14.657Z,0.00
2022-08-28T00:04:14.591Z,0.00
2022-08-28T00:05:14.587Z,0.00
2022-08-28T00:06:14.522Z,0.00
2022-08-28T00:07:14.514Z,0.00
2022-08-28T00:08:14.562Z,0.00
2022-08-28T00:09:14.506Z,0.00
2022-08-28T00:10:14.503Z,0.00
2022-08-28T00:11:14.491Z,0.00
2022-08-28T00:12:14.476Z,0.00
2022-08-28T00:13:14.474Z,0.00
2022-08-28T00:14:14.467Z,0.00
2022-08-28T00:15:14.474Z,0.00
2022-08-28T00:16:14.504Z,0.00
2022-08-28T00:17:14.452Z,0.00
2022-08-28T00:18:14.518Z,0.00
2022-08-28T00:19:14.426Z,0.00
2022-08-28T00:20:14.456Z,0.00
2022-08-28T00:21:14.425Z,0.00
2022-08-28T00:22:14.413Z,0.00
2022-08-28T00:23:14.451Z,0.00
2022-08-28T00:24:14.406Z,0.00
2022-08-28T00:25:14.464Z,0.00
2022-08-28T00:26:14.436Z,0.00
2022-08-28T00:27:14.383Z,0.00
2022-08-28T00:28:23.621Z,0.00
2022-08-28T00:29:14.369Z,0.00
2022-08-28T00:30:14.372Z,0.00
2022-08-28T00:31:14.412Z,0.00
2022-08-28T00:32:14.334Z,0.00
2022-08-28T00:33:14.347Z,0.00
2022-08-28T00:34:14.323Z,0.00
2022-08-28T00:35:14.340Z,0.00
2022-08-28T00:36:14.320Z,0.00
2022-08-28T00:37:14.310Z,0.00
2022-08-28T00:38:14.567Z,0.00
2022-08-28T00:39:14.291Z,0.00
2022-08-28T00:40:14.375Z,0.00
2022-08-28T00:41:15.116Z,0.00
2022-08-28T00:42:14.269Z,0.00
2022-08-28T00:43:14.266Z,0.00
2022-08-28T00:44:14.252Z,0.00
2022-08-28T00:45:14.261Z,0.00
2022-08-28T00:46:14.271Z,0.00
2022-08-28T00:47:14.240Z,0.00
2022-08-28T00:48:14.379Z,0.00
2022-08-28T00:49:14.221Z,0.00
2022-08-28T00:50:14.241Z,0.00
2022-08-28T00:51:14.218Z,0.00
2022-08-28T00:52:14.200Z,0.00
2022-08-28T00:53:14.211Z,0.00
2022-08-28T00:54:14.180Z,0.00
2022-08-28T00:55:14.180Z,0.00
2022-08-28T00:56:14.180Z,0.00
2022-08-28T00:57:14.170Z,0.00
2022-08-28T00:58:14.435Z,0.00
2022-08-28T00:59:14.151Z,0.00
2022-08-28T01:00:14.161Z,0.00
2022-08-28T01:01:14.409Z,0.00
2022-08-28T01:02:14.129Z,0.00
2022-08-28T01:03:14.181Z,0.00
2022-08-28T01:04:14.119Z,0.00
2022-08-28T01:05:14.109Z,0.00
2022-08-28T01:06:14.111Z,0.00
2022-08-28T01:07:14.096Z,0.00
2022-08-28T01:08:14.218Z,0.00
2022-08-28T01:09:14.079Z,0.00
2022-08-28T01:10:14.068Z,0.00
2022-08-28T01:11:14.139Z,0.00
2022-08-28T01:12:14.059Z,0.00
2022-08-28T01:13:14.049Z,0.00
2022-08-28T01:14:14.058Z,0.00
2022-08-28T01:15:14.174Z,0.00
2022-08-28T01:16:14.271Z,0.00
2022-08-28T01:17:14.038Z,0.00
2022-08-28T01:18:14.246Z,0.00
2022-08-28T01:19:14.010Z,0.00
2022-08-28T01:20:13.997Z,0.00
2022-08-28T01:21:20.052Z,0.00
2022-08-28T01:22:13.987Z,0.00
2022-08-28T01:23:13.996Z,0.00
2022-08-28T01:24:13.976Z,0.00
2022-08-28T01:25:13.968Z,0.00
2022-08-28T01:26:13.980Z,0.00
2022-08-28T01:27:13.957Z,0.00
2022-08-28T01:28:14.043Z,0.00
2022-08-28T01:29:13.948Z,0.00
2022-08-28T01:30:13.958Z,0.00
2022-08-28T01:31:13.980Z,0.00
2022-08-28T01:32:13.918Z,0.00
2022-08-28T01:33:13.906Z,0.00
2022-08-28T01:34:13.912Z,0.00
2022-08-28T01:35:13.890Z,0.00
2022-08-28T01:36:13.906Z,0.00
2022-08-28T01:37:13.888Z,0.00
2022-08-28T01:38:20.027Z,0.00
2022-08-28T01:39:13.889Z,0.00
2022-08-28T01:40:13.949Z,0.00
2022-08-28T01:41:13.887Z,0.00
2022-08-28T01:42:13.907Z,0.00
2022-08-28T01:43:13.835Z,0.00
2022-08-28T01:44:13.845Z,0.00
2022-08-28T01:45:13.820Z,0.00
2022-08-28T01:46:13.873Z,0.00
2022-08-28T01:47:13.806Z,0.00
2022-08-28T01:48:14.030Z,0.00
2022-08-28T01:49:13.805Z,0.00
2022-08-28T01:50:13.793Z,0.00
2022-08-28T01:51:13.784Z,0.00
2022-08-28T01:52:13.772Z,0.00
2022-08-28T01:53:13.763Z,0.00
2022-08-28T01:54:13.794Z,0.00
2022-08-28T01:55:13.745Z,0.00
2022-08-28T01:56:13.764Z,0.00
2022-08-28T01:57:13.733Z,0.00
2022-08-28T01:58:14.028Z,0.00
2022-08-28T01:59:13.726Z,0.00
2022-08-28T02:00:13.725Z,0.00
2022-08-28T02:01:13.762Z,0.00
2022-08-28T02:02:13.694Z,0.00
2022-08-28T02:03:13.697Z,0.00
2022-08-28T02:04:13.787Z,0.00
2022-08-28T02:05:13.684Z,0.00
2022-08-28T02:06:13.745Z,0.00
2022-08-28T02:07:13.721Z,0.00
2022-08-28T02:08:13.830Z,0.00
2022-08-28T02:09:14.758Z,0.00
2022-08-28T02:10:13.654Z,0.00
2022-08-28T02:11:13.703Z,0.00
2022-08-28T02:12:13.642Z,0.00
2022-08-28T02:13:13.633Z,0.00
2022-08-28T02:14:13.643Z,0.00
2022-08-28T02:15:13.617Z,0.00
2022-08-28T02:16:13.685Z,0.00
2022-08-28T02:17:13.593Z,0.00
2022-08-28T02:18:13.810Z,0.00
2022-08-28T02:19:13.583Z,0.00
2022-08-28T02:20:13.591Z,0.00
2022-08-28T02:21:13.582Z,0.00
2022-08-28T02:22:13.569Z,0.00
2022-08-28T02:23:13.565Z,0.00
2022-08-28T02:24:13.562Z,0.00
2022-08-28T02:25:13.541Z,0.00
2022-08-28T02:26:13.569Z,0.00
2022-08-28T02:27:13.541Z,0.00
2022-08-28T02:28:13.724Z,0.00
2022-08-28T02:29:13.530Z,0.00
2022-08-28T02:30:13.540Z,0.00
2022-08-28T02:31:13.598Z,0.00
2022-08-28T02:32:13.521Z,0.00
2022-08-28T02:33:13.490Z,0.00
2022-08-28T02:34:13.501Z,0.00
2022-08-28T02:35:13.489Z,0.00
2022-08-28T02:36:13.470Z,0.00
2022-08-28T02:37:13.492Z,0.00
2022-08-28T02:38:13.539Z,0.00
2022-08-28T02:39:13.442Z,0.00
2022-08-28T02:40:13.513Z,0.00
2022-08-28T02:41:13.429Z,0.00
2022-08-28T02:42:13.486Z,0.00
2022-08-28T02:43:13.422Z,0.00
2022-08-28T02:44:13.421Z,0.00
2022-08-28T02:45:13.400Z,0.00
2022-08-28T02:46:13.433Z,0.00
2022-08-28T02:47:13.400Z,0.00
2022-08-28T02:48:16.923Z,0.00
2022-08-28T02:49:13.460Z,0.00
2022-08-28T02:50:13.387Z,0.00
2022-08-28T02:51:13.403Z,0.00
2022-08-28T02:52:13.370Z,0.00
2022-08-28T02:53:13.349Z,0.00
2022-08-28T02:54:13.349Z,0.00
2022-08-28T02:55:13.331Z,0.00
2022-08-28T02:56:13.329Z,0.00
2022-08-28T02:57:13.328Z,0.00
2022-08-28T02:58:13.475Z,0.00
2022-08-28T02:59:13.298Z,0.00
2022-08-28T03:00:13.309Z,0.00
2022-08-28T03:01:13.349Z,0.00
2022-08-28T03:02:13.547Z,0.00
2022-08-28T03:03:13.289Z,0.00
2022-08-28T03:04:13.288Z,0.00
2022-08-28T03:05:13.280Z,0.00
2022-08-28T03:06:13.261Z,0.00
2022-08-28T03:07:13.263Z,0.00
2022-08-28T03:08:13.395Z,0.00
2022-08-28T03:09:13.242Z,0.00
2022-08-28T03:10:13.228Z,0.00
2022-08-28T03:11:13.225Z,0.00
2022-08-28T03:12:13.238Z,0.00
2022-08-28T03:13:13.830Z,0.00
2022-08-28T03:14:13.220Z,0.00
2022-08-28T03:15:13.204Z,0.00
2022-08-28T03:16:13.262Z,0.00
2022-08-28T03:17:13.207Z,0.00
2022-08-28T03:18:13.486Z,0.00
2022-08-28T03:19:13.156Z,0.00
2022-08-28T03:20:13.158Z,0.00
2022-08-28T03:21:13.153Z,0.00
2022-08-28T03:22:13.174Z,0.00
2022-08-28T03:23:13.136Z,0.00
2022-08-28T03:24:15.706Z,0.00
2022-08-28T03:25:13.116Z,0.00
2022-08-28T03:26:13.117Z,0.00
2022-08-28T03:27:13.153Z,0.00
2022-08-28T03:28:13.202Z,0.00
2022-08-28T03:29:13.119Z,0.00
2022-08-28T03:30:13.085Z,0.00
2022-08-28T03:31:13.162Z,0.00
2022-08-28T03:32:13.094Z,0.00
2022-08-28T03:33:13.064Z,0.00
2022-08-28T03:34:13.065Z,0.00
2022-08-28T03:35:13.045Z,0.00
2022-08-28T03:36:13.051Z,0.00
2022-08-28T03:37:13.106Z,0.00
2022-08-28T03:38:13.140Z,0.00
2022-08-28T03:39:13.016Z,0.00
2022-08-28T03:40:13.113Z,0.00
2022-08-28T03:41:13.026Z,0.00
2022-08-28T03:42:13.112Z,0.00
2022-08-28T03:43:12.995Z,0.00
2022-08-28T03:44:13.001Z,0.00
2022-08-28T03:45:12.987Z,0.00
2022-08-28T03:46:13.011Z,0.00
2022-08-28T03:47:12.973Z,0.00
2022-08-28T03:48:13.250Z,0.00
2022-08-28T03:49:12.963Z,0.00
2022-08-28T03:50:12.962Z,0.00
2022-08-28T03:51:12.957Z,0.00
2022-08-28T03:52:12.934Z,0.00
2022-08-28T03:53:12.953Z,0.00
2022-08-28T03:54:12.991Z,0.00
2022-08-28T03:55:12.913Z,0.00
2022-08-28T03:56:12.911Z,0.00
2022-08-28T03:57:12.902Z,0.00
2022-08-28T03:58:19.081Z,0.00
2022-08-28T03:59:12.904Z,0.00
2022-08-28T04:00:12.893Z,0.00
2022-08-28T04:01:12.946Z,0.00
2022-08-28T04:02:12.871Z,0.00
2022-08-28T04:03:12.970Z,0.00
2022-08-28T04:04:12.863Z,0.00
2022-08-28T04:05:12.840Z,4.00
2022-08-28T04:06:12.841Z,4.00
2022-08-28T04:07:12.831Z,4.00
2022-08-28T04:08:12.921Z,1.00
2022-08-28T04:09:12.818Z,1.00
2022-08-28T04:10:12.831Z,1.00
2022-08-28T04:11:12.800Z,9.00
2022-08-28T04:12:12.801Z,5.00
2022-08-28T04:13:12.838Z,5.00
2022-08-28T04:14:12.797Z,10.00
2022-08-28T04:15:12.774Z,10.00
2022-08-28T04:16:12.828Z,14.00
2022-08-28T04:17:12.808Z,27.00
2022-08-28T04:18:12.928Z,19.00
2022-08-28T04:19:12.742Z,23.00
2022-08-28T04:20:12.770Z,32.00
2022-08-28T04:21:12.838Z,41.00
2022-08-28T04:22:12.769Z,37.00
2022-08-28T04:23:12.731Z,59.00
2022-08-28T04:24:12.735Z,51.00
2022-08-28T04:25:12.709Z,65.00
2022-08-28T04:26:12.706Z,78.00
2022-08-28T04:27:12.690Z,96.00
2022-08-28T04:28:12.892Z,92.00
2022-08-28T04:29:12.705Z,89.00
2022-08-28T04:30:12.679Z,106.00
2022-08-28T04:31:12.668Z,124.00
2022-08-28T04:32:12.681Z,142.00
2022-08-28T04:33:12.667Z,165.00
2022-08-28T04:34:12.655Z,182.00
2022-08-28T04:35:12.647Z,201.00
2022-08-28T04:36:12.627Z,211.00
2022-08-28T04:37:12.628Z,237.00
2022-08-28T04:38:12.668Z,277.00
2022-08-28T04:39:12.609Z,282.00
2022-08-28T04:40:12.743Z,321.00
2022-08-28T04:41:12.595Z,335.00
2022-08-28T04:42:13.204Z,354.00
2022-08-28T04:43:12.597Z,351.00
2022-08-28T04:44:13.439Z,365.00
2022-08-28T04:45:12.727Z,370.00
2022-08-28T04:46:13.187Z,393.00
2022-08-28T04:47:12.556Z,405.00
2022-08-28T04:48:13.447Z,441.00
2022-08-28T04:49:13.309Z,486.00
2022-08-28T04:50:12.726Z,518.00
2022-08-28T04:51:12.906Z,546.00
2022-08-28T04:52:12.574Z,579.00
2022-08-28T04:53:12.925Z,612.00
2022-08-28T04:54:13.315Z,663.00
2022-08-28T04:55:12.515Z,713.00
2022-08-28T04:56:12.498Z,779.00
2022-08-28T04:57:12.485Z,846.00
2022-08-28T04:58:12.599Z,887.00
2022-08-28T04:59:12.464Z,927.00
2022-08-28T05:00:12.474Z,972.00
2022-08-28T05:01:12.500Z,1000.00
2022-08-28T05:02:12.493Z,983.00
2022-08-28T05:03:12.453Z,964.00
2022-08-28T05:04:12.483Z,972.00
2022-08-28T05:05:12.482Z,1035.00
2022-08-28T05:06:12.415Z,1089.00
2022-08-28T05:07:12.403Z,1139.00
2022-08-28T05:08:12.580Z,1205.00
2022-08-28T05:09:12.395Z,1254.00
2022-08-28T05:10:12.393Z,1297.00
2022-08-28T05:11:12.373Z,1324.00
2022-08-28T05:12:12.372Z,1347.00
2022-08-28T05:13:12.361Z,1350.00
2022-08-28T05:14:15.926Z,1349.00
2022-08-28T05:15:12.532Z,1363.00
2022-08-28T05:16:12.435Z,1398.00
2022-08-28T05:17:12.342Z,1471.00
2022-08-28T05:18:12.674Z,1525.00
2022-08-28T05:19:12.539Z,1541.00
2022-08-28T05:20:13.301Z,1561.00
2022-08-28T05:21:14.447Z,1572.00
2022-08-28T05:22:12.302Z,1587.00
2022-08-28T05:23:12.580Z,1664.00
2022-08-28T05:24:12.330Z,1711.00
2022-08-28T05:25:12.284Z,1785.00
2022-08-28T05:26:12.282Z,1889.00
2022-08-28T05:27:12.480Z,1953.00
2022-08-28T05:28:12.559Z,2001.00
2022-08-28T05:29:12.398Z,1989.00
2022-08-28T05:30:12.250Z,1946.00
2022-08-28T05:31:12.302Z,1988.00
2022-08-28T05:32:12.739Z,2018.00
2022-08-28T05:33:12.740Z,2049.00
2022-08-28T05:34:12.249Z,2106.00
2022-08-28T05:35:12.521Z,2141.00
2022-08-28T05:36:12.210Z,2167.00
2022-08-28T05:37:15.429Z,2168.00
2022-08-28T05:38:12.358Z,2143.00
2022-08-28T05:39:12.195Z,2206.00
2022-08-28T05:40:12.208Z,2317.00
2022-08-28T05:41:12.470Z,2409.00
2022-08-28T05:42:12.159Z,2494.00
2022-08-28T05:43:12.561Z,2655.00
2022-08-28T05:44:12.169Z,2811.00
2022-08-28T05:45:12.618Z,2964.00
2022-08-28T05:46:12.164Z,2973.00
2022-08-28T05:47:12.128Z,2995.00
2022-08-28T05:48:12.297Z,3010.00
2022-08-28T05:49:12.138Z,3067.00
2022-08-28T05:50:12.099Z,3111.00
2022-08-28T05:51:12.206Z,3225.00
2022-08-28T05:52:12.088Z,3325.00
2022-08-28T05:53:12.077Z,3331.00
2022-08-28T05:54:12.097Z,3332.00
2022-08-28T05:55:12.067Z,3251.00
2022-08-28T05:56:12.058Z,3252.00
2022-08-28T05:57:12.055Z,3331.00
2022-08-28T05:58:12.200Z,3392.00
2022-08-28T05:59:12.087Z,3387.00
2022-08-28T06:00:12.027Z,3436.00
2022-08-28T06:01:12.040Z,3512.00
2022-08-28T06:02:12.064Z,3530.00
2022-08-28T06:03:12.826Z,3512.00
2022-08-28T06:04:12.120Z,3426.00
2022-08-28T06:05:13.079Z,3320.00
2022-08-28T06:06:11.996Z,3259.00
2022-08-28T06:07:11.987Z,3345.00
2022-08-28T06:08:12.206Z,3304.00
2022-08-28T06:09:11.997Z,3361.00
2022-08-28T06:10:12.064Z,3436.00
2022-08-28T06:11:11.956Z,3559.00
2022-08-28T06:12:12.206Z,3663.00
2022-08-28T06:13:11.952Z,3820.00
2022-08-28T06:14:12.025Z,4004.00
2022-08-28T06:15:11.937Z,4090.00
2022-08-28T06:16:11.968Z,4183.00
2022-08-28T06:17:11.924Z,4222.00
2022-08-28T06:18:12.400Z,4217.00
2022-08-28T06:19:11.915Z,4293.00
2022-08-28T06:20:11.886Z,4312.00
2022-08-28T06:21:11.904Z,4406.00
2022-08-28T06:22:11.897Z,4579.00
2022-08-28T06:23:11.874Z,4668.00
2022-08-28T06:24:11.888Z,4680.00
2022-08-28T06:25:11.863Z,4696.00
2022-08-28T06:26:11.854Z,4623.00
2022-08-28T06:27:11.844Z,4595.00
2022-08-28T06:28:12.127Z,4599.00
2022-08-28T06:29:11.843Z,4479.00
2022-08-28T06:30:11.821Z,4414.00
2022-08-28T06:31:24.270Z,4363.00
2022-08-28T06:32:11.878Z,4455.00
2022-08-28T06:33:11.803Z,4474.00
2022-08-28T06:34:11.813Z,4546.00
2022-08-28T06:35:11.794Z,4494.00
2022-08-28T06:36:11.788Z,4451.00
2022-08-28T06:37:11.772Z,4483.00
2022-08-28T06:38:11.832Z,4566.00
2022-08-28T06:39:11.803Z,4572.00
2022-08-28T06:40:11.790Z,4659.00
2022-08-28T06:41:11.756Z,4856.00
2022-08-28T06:42:11.750Z,5123.00
2022-08-28T06:43:11.732Z,5502.00
2022-08-28T06:44:11.752Z,5786.00
2022-08-28T06:45:11.723Z,5888.00
2022-08-28T06:46:11.797Z,6291.00
2022-08-28T06:47:11.710Z,6564.00
2022-08-28T06:48:11.831Z,6449.00
2022-08-28T06:49:11.711Z,6329.00
2022-08-28T06:50:11.782Z,6451.00
2022-08-28T06:51:11.681Z,6882.00
2022-08-28T06:52:11.668Z,7098.00
2022-08-28T06:53:11.668Z,7103.00
2022-08-28T06:54:11.680Z,7174.00
2022-08-28T06:55:11.660Z,7084.00
2022-08-28T06:56:13.661Z,7179.00
2022-08-28T06:57:11.640Z,7279.00
2022-08-28T06:58:11.694Z,7288.00
2022-08-28T06:59:11.640Z,7849.00
2022-08-28T07:00:11.621Z,7237.00
2022-08-28T07:01:12.197Z,7632.00
2022-08-28T07:02:11.653Z,7849.00
2022-08-28T07:03:11.594Z,7856.00
2022-08-28T07:04:11.651Z,7496.00
2022-08-28T07:05:11.581Z,7425.00
2022-08-28T07:06:11.570Z,7833.00
2022-08-28T07:07:11.566Z,7917.00
2022-08-28T07:08:11.817Z,7789.00
2022-08-28T07:09:11.570Z,7701.00
2022-08-28T07:10:11.538Z,7560.00
2022-08-28T07:11:11.540Z,7282.00
2022-08-28T07:12:11.527Z,7130.00
2022-08-28T07:13:12.088Z,7496.00
2022-08-28T07:14:12.150Z,7762.00
2022-08-28T07:15:11.511Z,7417.00
2022-08-28T07:16:11.586Z,7056.00
2022-08-28T07:17:11.918Z,7586.00
2022-08-28T07:18:11.756Z,8140.00
2022-08-28T07:19:11.508Z,8010.00
2022-08-28T07:20:11.490Z,7486.00
2022-08-28T07:21:12.693Z,7129.00
2022-08-28T07:22:11.869Z,7125.00
2022-08-28T07:23:12.509Z,7370.00
2022-08-28T07:24:11.496Z,7396.00
2022-08-28T07:25:11.448Z,7505.00
2022-08-28T07:26:11.432Z,7802.00
2022-08-28T07:27:14.702Z,7369.00
2022-08-28T07:28:11.418Z,6843.00
2022-08-28T07:29:11.851Z,7108.00
2022-08-28T07:30:11.398Z,7379.00
2022-08-28T07:31:11.443Z,7484.00
2022-08-28T07:32:11.837Z,7526.00
2022-08-28T07:33:11.385Z,7424.00
2022-08-28T07:34:11.945Z,7223.00
2022-08-28T07:35:11.367Z,7472.00
2022-08-28T07:36:15.710Z,7701.00
2022-08-28T07:37:15.237Z,7862.00
2022-08-28T07:38:11.347Z,8080.00
2022-08-28T07:39:11.338Z,8072.00
2022-08-28T07:40:11.476Z,7503.00
2022-08-28T07:41:11.326Z,7387.00
2022-08-28T07:42:11.329Z,7308.00
2022-08-28T07:43:11.315Z,7336.00
2022-08-28T07:44:11.324Z,7293.00
2022-08-28T07:45:11.530Z,7458.00
2022-08-28T07:46:11.358Z,6829.00
2022-08-28T07:47:11.297Z,6673.00
2022-08-28T07:48:13.456Z,7155.00
2022-08-28T07:49:11.442Z,7859.00
2022-08-28T07:50:12.215Z,8306.00
2022-08-28T07:51:11.255Z,9013.00
2022-08-28T07:52:11.254Z,9364.00
2022-08-28T07:53:11.356Z,9547.00
2022-08-28T07:54:14.743Z,9572.00
2022-08-28T07:55:11.247Z,9380.00
2022-08-28T07:56:11.366Z,8814.00
2022-08-28T07:57:11.224Z,8094.00
2022-08-28T07:58:11.304Z,7607.00
2022-08-28T07:59:11.714Z,7802.00
2022-08-28T08:00:11.204Z,8515.00
2022-08-28T08:01:11.242Z,9289.00
2022-08-28T08:02:11.178Z,10138.00
2022-08-28T08:03:11.337Z,10746.00
2022-08-28T08:04:11.362Z,10065.00
2022-08-28T08:05:11.195Z,11293.00
2022-08-28T08:06:11.152Z,12002.00
2022-08-28T08:07:11.517Z,8334.00
2022-08-28T08:08:11.694Z,8225.00
2022-08-28T08:09:11.134Z,9766.00
2022-08-28T08:10:11.153Z,10084.00
2022-08-28T08:11:16.579Z,11597.00
2022-08-28T08:12:11.203Z,12322.00
2022-08-28T08:13:11.805Z,12406.00
2022-08-28T08:14:11.105Z,12210.00
2022-08-28T08:15:11.114Z,11278.00
2022-08-28T08:16:11.136Z,10144.00
2022-08-28T08:17:11.167Z,8645.00
2022-08-28T08:18:12.125Z,7082.00
2022-08-28T08:19:11.074Z,6985.00
2022-08-28T08:20:11.075Z,7863.00
2022-08-28T08:21:11.933Z,6721.00
2022-08-28T08:22:11.963Z,7251.00
2022-08-28T08:23:11.452Z,8289.00
2022-08-28T08:24:11.033Z,11821.00
2022-08-28T08:25:11.033Z,10924.00
2022-08-28T08:26:11.144Z,11727.00
2022-08-28T08:27:11.992Z,11260.00
2022-08-28T08:28:11.703Z,10232.00
2022-08-28T08:29:11.013Z,9588.00
2022-08-28T08:30:11.833Z,9450.00
2022-08-28T08:31:11.038Z,9609.00
2022-08-28T08:32:10.991Z,10032.00
2022-08-28T08:33:10.974Z,9794.00
2022-08-28T08:34:10.982Z,9580.00
2022-08-28T08:35:10.993Z,9638.00
2022-08-28T08:36:10.970Z,10226.00
2022-08-28T08:37:10.939Z,10644.00
2022-08-28T08:38:10.931Z,10792.00
2022-08-28T08:39:10.945Z,10176.00
2022-08-28T08:40:10.998Z,9599.00
2022-08-28T08:41:10.922Z,10081.00
2022-08-28T08:42:10.900Z,11207.00
2022-08-28T08:43:10.891Z,11838.00
2022-08-28T08:44:11.018Z,11839.00
2022-08-28T08:45:10.882Z,10765.00
2022-08-28T08:46:10.915Z,10591.00
2022-08-28T08:47:14.512Z,10207.00
2022-08-28T08:48:11.002Z,10016.00
2022-08-28T08:49:11.521Z,10243.00
2022-08-28T08:50:10.851Z,10888.00
2022-08-28T08:51:10.841Z,11636.00
2022-08-28T08:52:10.833Z,12161.00
2022-08-28T08:53:10.829Z,12694.00
2022-08-28T08:54:11.100Z,13114.00
2022-08-28T08:55:10.871Z,13215.00
2022-08-28T08:56:10.800Z,13351.00
2022-08-28T08:57:11.260Z,13442.00
2022-08-28T08:58:11.863Z,13334.00
2022-08-28T08:59:10.833Z,13198.00
2022-08-28T09:00:15.558Z,12851.00
2022-08-28T09:01:10.802Z,12191.00
2022-08-28T09:02:10.767Z,12478.00
2022-08-28T09:03:10.793Z,11800.00
2022-08-28T09:04:13.326Z,12777.00
2022-08-28T09:05:10.783Z,13461.00
2022-08-28T09:06:10.739Z,14364.00
2022-08-28T09:07:10.732Z,14424.00
2022-08-28T09:08:10.720Z,14466.00
2022-08-28T09:09:10.720Z,15098.00
2022-08-28T09:10:10.961Z,15356.00
2022-08-28T09:11:10.711Z,15515.00
2022-08-28T09:12:10.710Z,15128.00
2022-08-28T09:13:10.782Z,14210.00
2022-08-28T09:14:10.710Z,13032.00
2022-08-28T09:15:10.740Z,11988.00
2022-08-28T09:16:10.791Z,11579.00
2022-08-28T09:17:10.808Z,12389.00
2022-08-28T09:18:10.678Z,13904.00
2022-08-28T09:19:10.709Z,15449.00
2022-08-28T09:20:10.819Z,16390.00
2022-08-28T09:21:10.670Z,16317.00
2022-08-28T09:22:10.669Z,15978.00
2022-08-28T09:23:12.598Z,16314.00
2022-08-28T09:24:10.981Z,17164.00
2022-08-28T09:25:10.788Z,18227.00
2022-08-28T09:26:10.870Z,17936.00
2022-08-28T09:27:14.326Z,17109.00
2022-08-28T09:28:10.593Z,16914.00
2022-08-28T09:29:10.618Z,16593.00
2022-08-28T09:30:10.621Z,17417.00
2022-08-28T09:31:10.711Z,17515.00
2022-08-28T09:32:10.618Z,17347.00
2022-08-28T09:33:10.616Z,17542.00
2022-08-28T09:34:10.732Z,17828.00
2022-08-28T09:35:10.829Z,18208.00
2022-08-28T09:36:10.520Z,18665.00
2022-08-28T09:37:12.385Z,19135.00
2022-08-28T09:38:10.501Z,19265.00
2022-08-28T09:39:10.507Z,19125.00
2022-08-28T09:40:10.545Z,18617.00
2022-08-28T09:41:10.490Z,18620.00
2022-08-28T09:42:10.689Z,19042.00
2022-08-28T09:43:10.469Z,19046.00
2022-08-28T09:44:10.471Z,19305.00
2022-08-28T09:45:10.488Z,19467.00
2022-08-28T09:46:10.784Z,19458.00
2022-08-28T09:47:10.738Z,19868.00
2022-08-28T09:48:10.438Z,20353.00
2022-08-28T09:49:10.428Z,20326.00
2022-08-28T09:50:10.447Z,20438.00
2022-08-28T09:51:10.418Z,20196.00
2022-08-28T09:52:10.408Z,19843.00
2022-08-28T09:53:10.723Z,19800.00
2022-08-28T09:54:10.399Z,19701.00
2022-08-28T09:55:10.428Z,19661.00
2022-08-28T09:56:10.378Z,20158.00
2022-08-28T09:57:10.707Z,21055.00
2022-08-28T09:58:10.368Z,21432.00
2022-08-28T09:59:10.358Z,21608.00
2022-08-28T10:00:10.388Z,21655.00
2022-08-28T10:01:10.383Z,21508.00
2022-08-28T10:02:10.501Z,21564.00
2022-08-28T10:03:10.328Z,21199.00
2022-08-28T10:04:10.356Z,20859.00
2022-08-28T10:05:10.327Z,20721.00
2022-08-28T10:06:10.315Z,20555.00
2022-08-28T10:07:10.757Z,20332.00
2022-08-28T10:08:10.309Z,20635.00
2022-08-28T10:09:10.688Z,20623.00
2022-08-28T10:10:10.298Z,20437.00
2022-08-28T10:11:10.279Z,20184.00
2022-08-28T10:12:10.358Z,19812.00
2022-08-28T10:13:10.372Z,19388.00
2022-08-28T10:14:10.256Z,19262.00
2022-08-28T10:15:10.248Z,19436.00
2022-08-28T10:16:10.578Z,19846.00
2022-08-28T10:17:10.627Z,20138.00
2022-08-28T10:18:10.229Z,20601.00
2022-08-28T10:19:10.225Z,20921.00
2022-08-28T10:20:10.377Z,21034.00
2022-08-28T10:21:10.687Z,21544.00
2022-08-28T10:22:10.198Z,22203.00
2022-08-28T10:23:13.392Z,23216.00
2022-08-28T10:24:10.266Z,23633.00
2022-08-28T10:25:10.188Z,23499.00
2022-08-28T10:26:10.188Z,23005.00
2022-08-28T10:27:10.161Z,22423.00
2022-08-28T10:28:10.161Z,22521.00
2022-08-28T10:29:10.157Z,23095.00
2022-08-28T10:30:13.387Z,23592.00
2022-08-28T10:31:10.187Z,23307.00
2022-08-28T10:32:10.127Z,22535.00
2022-08-28T10:33:10.118Z,21382.00
2022-08-28T10:34:10.634Z,20707.00
2022-08-28T10:35:10.699Z,21193.00
2022-08-28T10:36:33.426Z,21457.00
2022-08-28T10:37:10.089Z,21404.00
2022-08-28T10:38:10.087Z,21377.00
2022-08-28T10:39:10.837Z,20551.00
2022-08-28T10:40:10.195Z,20587.00
2022-08-28T10:41:10.077Z,21135.00
2022-08-28T10:42:10.066Z,20786.00
2022-08-28T10:43:10.602Z,21980.00
2022-08-28T10:44:10.047Z,22809.00
2022-08-28T10:45:10.037Z,24560.00
2022-08-28T10:46:10.103Z,25556.00
2022-08-28T10:47:10.029Z,25288.00
2022-08-28T10:48:10.735Z,25601.00
2022-08-28T10:49:10.728Z,26502.00
2022-08-28T10:50:10.974Z,25451.00
2022-08-28T10:51:10.017Z,25173.00
2022-08-28T10:52:09.995Z,24603.00
2022-08-28T10:53:10.692Z,29840.00
2022-08-28T10:54:10.741Z,25078.00
2022-08-28T10:55:09.966Z,36335.00
2022-08-28T10:56:09.976Z,47170.00
2022-08-28T10:57:09.966Z,45894.00
2022-08-28T10:58:24.058Z,35224.00
2022-08-28T10:59:09.937Z,31501.00
2022-08-28T11:00:09.936Z,28787.00
2022-08-28T11:01:10.072Z,58681.00
2022-08-28T11:02:10.101Z,45907.00
2022-08-28T11:03:27.110Z,16707.00
2022-08-28T11:04:09.907Z,17371.00
2022-08-28T11:05:09.897Z,40191.00
2022-08-28T11:06:09.907Z,66105.00
2022-08-28T11:07:10.298Z,47103.00
2022-08-28T11:08:09.959Z,48460.00
2022-08-28T11:09:09.867Z,13287.00
2022-08-28T11:10:09.891Z,157595.00
2022-08-28T11:11:09.901Z,159506.00
2022-08-28T11:12:10.593Z,156238.00
2022-08-28T11:13:09.906Z,156093.00
2022-08-28T11:14:09.834Z,153390.00
2022-08-28T11:15:09.826Z,161079.00
2022-08-28T11:16:09.845Z,155533.00
2022-08-28T11:17:10.766Z,165190.00
2022-08-28T11:18:09.807Z,154731.00
2022-08-28T11:19:09.798Z,162828.00
2022-08-28T11:20:10.499Z,145438.00
2022-08-28T11:21:10.707Z,157921.00
2022-08-28T11:22:09.786Z,161759.00
2022-08-28T11:23:09.853Z,161153.00
2022-08-28T11:24:09.789Z,158361.00
2022-08-28T11:25:09.984Z,160932.00
2022-08-28T11:26:09.768Z,156165.00
2022-08-28T11:27:09.737Z,164573.00
2022-08-28T11:28:09.737Z,151205.00
2022-08-28T11:29:09.728Z,152096.00
2022-08-28T11:30:09.731Z,151811.00
2022-08-28T11:31:09.773Z,147071.00
2022-08-28T11:32:09.716Z,155811.00
2022-08-28T11:33:09.787Z,162477.00
2022-08-28T11:34:09.698Z,160512.00
2022-08-28T11:35:10.297Z,164031.00
2022-08-28T11:36:09.704Z,162770.00
2022-08-28T11:37:09.675Z,163531.00
2022-08-28T11:38:09.676Z,164060.00
2022-08-28T11:39:09.666Z,163612.00
2022-08-28T11:40:10.017Z,164210.00
2022-08-28T11:41:09.680Z,162634.00
2022-08-28T11:42:09.641Z,161873.00
2022-08-28T11:43:09.626Z,158518.00
2022-08-28T11:44:09.841Z,117015.00
2022-08-28T11:45:09.616Z,0.00
2022-08-28T11:46:09.687Z,163242.00
2022-08-28T11:47:09.605Z,151177.00
2022-08-28T11:48:09.607Z,164157.00
2022-08-28T11:49:09.587Z,156624.00
2022-08-28T11:50:09.588Z,153685.00
2022-08-28T11:51:09.595Z,155425.00
2022-08-28T11:52:09.577Z,152447.00
2022-08-28T11:53:09.573Z,152056.00
2022-08-28T11:54:09.560Z,145986.00
2022-08-28T11:55:09.556Z,159115.00
2022-08-28T11:56:09.569Z,140310.00
2022-08-28T11:57:09.538Z,22703.00
2022-08-28T11:59:16.455Z,0.00
2022-08-28T12:00:15.534Z,9532.00
2022-08-28T12:01:15.555Z,23376.00
2022-08-28T12:02:15.649Z,150656.00
2022-08-28T12:03:16.345Z,160661.00
2022-08-28T12:04:16.595Z,132289.00
2022-08-28T12:05:15.499Z,42002.00
2022-08-28T12:06:15.555Z,20488.00
2022-08-28T12:07:15.485Z,150359.00
2022-08-28T12:08:15.476Z,120855.00
2022-08-28T12:09:16.536Z,30980.00
2022-08-28T12:10:16.244Z,23354.00
2022-08-28T12:11:15.474Z,18347.00
2022-08-28T12:12:15.449Z,7666.00
2022-08-28T12:13:15.602Z,119437.00
2022-08-28T12:14:15.435Z,7308.00
2022-08-28T12:15:15.435Z,15220.00
2022-08-28T12:16:16.002Z,150034.00
2022-08-28T12:17:15.657Z,158411.00
2022-08-28T12:18:15.767Z,163488.00
2022-08-28T12:19:15.815Z,125493.00
2022-08-28T12:20:15.620Z,14605.00
2022-08-28T12:21:15.636Z,68099.00
2022-08-28T12:22:15.949Z,33085.00
2022-08-28T12:23:16.006Z,37366.00